Time;durP1;ratioP1;P1;durP2;ratioP2;P2;SDS_P1;SDS_P2;PMS_P1;PMS_P2;Temp;Humidity;BMP_temperature;BMP_pressure;BME280_temperature;BME280_humidity;BME280_pressure;Samples;Min_cycle;Max_cycle;Signal;HPM_P1;HPM_P2
2023/04/02 17:32:24;;;;;;;;;18.00;18.00;;;;;10.15;66.75;102006.63;5155121;27;45505;-63
2023/04/02 17:34:50;;;;;;;;;21.00;17.00;;;;;10.48;65.90;102046.94;5134042;27;45832;-61
2023/04/02 17:37:32;;;;;;;;;15.25;15.25;;;;;10.58;65.99;102056.53;5121148;27;45431;-63
2023/04/02 17:40:24;;;;;;;;;16.00;16.00;;;;;10.63;65.68;102062.69;5136806;27;45341;-62
2023/04/02 17:43:01;;;;;;;;;20.75;19.25;;;;;10.66;66.25;102064.38;5144236;27;47212;-62
2023/04/02 17:45:37;;;;;;;;;24.50;19.75;;;;;10.69;66.08;102061.63;5136759;27;45337;-62
2023/04/02 17:48:17;;;;;;;;;25.50;25.50;;;;;10.71;65.33;102068.72;5136196;27;45372;-60
2023/04/02 17:50:48;;;;;;;;;22.75;21.75;;;;;10.67;65.29;102075.06;5123394;27;45600;-61
2023/04/02 17:53:30;;;;;;;;;21.25;21.00;;;;;10.59;65.37;102060.97;5128202;27;45931;-61
2023/04/02 17:56:16;;;;;;;;;21.50;18.25;;;;;10.61;66.11;102065.41;5156925;27;45821;-62
2023/04/02 17:58:54;;;;;;;;;20.25;16.50;;;;;10.69;65.41;102072.38;5123008;27;45358;-61
2023/04/02 18:01:48;;;;;;;;;25.25;21.50;;;;;10.71;65.94;102079.47;5134909;27;45404;-63
2023/04/02 18:04:31;;;;;;;;;21.00;20.25;;;;;10.74;65.92;102071.31;5128228;27;45514;-63
2023/04/02 18:07:09;;;;;;;;;24.25;18.75;;;;;10.81;65.40;102083.63;5132078;27;45396;-62
2023/04/02 18:09:46;;;;;;;;;27.00;22.00;;;;;10.79;65.38;102085.50;5126891;27;45409;-61
2023/04/02 18:12:28;;;;;;;;;17.75;17.00;;;;;10.81;65.38;102086.31;5135054;27;46191;-61
2023/04/02 18:15:42;;;;;;;;;23.75;23.00;;;;;10.78;64.92;102088.22;5136349;27;45494;-63
2023/04/02 18:18:26;;;;;;;;;29.00;21.50;;;;;10.73;65.13;102099.06;5118120;27;45772;-63
2023/04/02 18:21:05;;;;;;;;;24.00;23.50;;;;;10.55;65.01;102073.56;5129636;27;45352;-63
2023/04/02 18:23:38;;;;;;;;;25.00;22.50;;;;;10.72;65.08;102109.84;5135089;27;45321;-64
2023/04/02 18:26:20;;;;;;;;;21.00;18.00;;;;;10.73;65.32;102112.47;5128512;27;45449;-62
2023/04/02 18:29:07;;;;;;;;;21.25;19.25;;;;;10.67;64.59;102109.06;5122328;27;45359;-60
2023/04/02 18:31:47;;;;;;;;;15.50;15.50;;;;;10.63;65.20;102105.59;5131130;27;45288;-63
2023/04/02 18:34:35;;;;;;;;;23.50;19.50;;;;;10.65;65.39;102113.56;5121371;27;45419;-63
2023/04/02 18:37:36;;;;;;;;;16.75;15.75;;;;;10.66;64.95;102121.59;5115489;27;45484;-65
2023/04/02 18:40:40;;;;;;;;;24.00;24.00;;;;;10.70;65.32;102127.78;5117921;27;45342;-60
2023/04/02 18:43:19;;;;;;;;;24.00;20.75;;;;;10.68;65.77;102124.22;5121407;27;45281;-63
2023/04/02 18:45:55;;;;;;;;;23.75;23.75;;;;;10.66;66.20;102128.75;5116090;27;45341;-62
2023/04/02 18:48:23;;;;;;;;;26.25;25.00;;;;;10.72;65.96;102134.00;5121690;27;45343;-61
2023/04/02 18:50:48;;;;;;;;;29.50;26.50;;;;;10.72;65.43;102128.63;5111338;27;45242;-61
2023/04/02 18:53:22;;;;;;;;;35.00;32.75;;;;;10.64;65.14;102123.41;5110048;27;45349;-63
2023/04/02 18:56:00;;;;;;;;;23.25;23.25;;;;;10.63;65.57;102125.22;5110973;27;45263;-63
2023/04/02 18:58:33;;;;;;;;;26.25;24.75;;;;;10.58;64.73;102127.13;5112556;27;46935;-62
2023/04/02 19:00:59;;;;;;;;;27.00;24.25;;;;;10.56;65.06;102134.31;5107882;27;45414;-64
2023/04/02 19:03:35;;;;;;;;;25.00;20.25;;;;;10.60;65.33;102143.19;5111538;27;45358;-65
2023/04/02 19:06:02;;;;;;;;;27.75;27.50;;;;;10.59;65.39;102144.09;5121424;27;45332;-65
2023/04/02 19:08:45;;;;;;;;;40.00;33.25;;;;;10.59;65.38;102149.47;5121535;27;45405;-63
2023/04/02 19:11:19;;;;;;;;;30.75;29.50;;;;;10.57;65.32;102156.66;5110497;27;45821;-63
2023/04/02 19:13:44;;;;;;;;;37.50;29.00;;;;;10.49;65.43;102145.25;5121666;27;45313;-62
2023/04/02 19:16:16;;;;;;;;;30.00;27.00;;;;;10.50;65.51;102153.25;5120981;27;45654;-62
2023/04/02 19:18:47;;;;;;;;;33.25;31.25;;;;;10.50;65.44;102160.41;5121611;27;45611;-61
2023/04/02 19:21:36;;;;;;;;;41.25;34.00;;;;;10.50;65.43;102161.28;5121446;27;45399;-63
2023/04/02 19:24:40;;;;;;;;;31.50;29.50;;;;;10.51;65.80;102175.59;5121747;27;45261;-63
2023/04/02 19:27:22;;;;;;;;;40.50;36.75;;;;;10.31;65.40;102142.97;5111557;27;45519;-63
2023/04/02 19:29:50;;;;;;;;;43.75;35.50;;;;;10.47;64.64;102171.19;5121223;27;45440;-63
2023/04/02 19:32:46;;;;;;;;;40.25;35.50;;;;;10.44;64.20;102173.97;5121479;27;45626;-61
2023/04/02 19:35:30;;;;;;;;;33.50;31.50;;;;;10.39;64.53;102179.41;5111746;27;45338;-62
2023/04/02 19:38:27;;;;;;;;;31.50;30.25;;;;;10.37;64.24;102194.69;5120684;27;45330;-61
2023/04/02 19:41:14;;;;;;;;;38.50;28.50;;;;;10.41;63.87;102195.47;5120953;27;46482;-64
2023/04/02 19:43:39;;;;;;;;;37.00;35.00;;;;;10.37;63.33;102186.63;5119678;27;45332;-63
2023/04/02 19:46:05;;;;;;;;;36.00;30.75;;;;;10.36;63.17;102197.38;5120193;27;45197;-62
2023/04/02 19:48:46;;;;;;;;;31.75;26.00;;;;;10.36;62.80;102209.00;5118649;27;46099;-62
2023/04/02 19:51:12;;;;;;;;;49.00;37.50;;;;;10.32;62.42;102204.59;5120553;27;45518;-63
2023/04/02 19:53:37;;;;;;;;;36.50;29.50;;;;;10.28;62.38;102202.03;5120588;27;45376;-62
2023/04/02 19:56:03;;;;;;;;;33.50;30.25;;;;;10.27;62.77;102205.63;5120988;27;50404;-64
2023/04/02 19:58:30;;;;;;;;;42.00;36.75;;;;;10.28;62.52;102210.06;5132643;27;46585;-61
2023/04/02 20:00:56;;;;;;;;;33.50;31.75;;;;;10.15;62.82;102207.59;5119793;27;45691;-61
2023/04/02 20:03:21;;;;;;;;;40.25;32.75;;;;;10.22;63.02;102211.06;5130259;27;45662;-66
2023/04/02 20:05:47;;;;;;;;;34.25;29.75;;;;;10.19;62.88;102208.47;5120670;27;45695;-62
2023/04/02 20:08:12;;;;;;;;;25.00;25.00;;;;;10.23;62.64;102223.56;5120846;27;45551;-59
2023/04/02 20:10:38;;;;;;;;;34.75;33.50;;;;;10.26;62.89;102225.28;5120741;27;45294;-62
2023/04/02 20:13:03;;;;;;;;;30.25;30.25;;;;;10.25;62.66;102216.38;5119174;27;45404;-59
2023/04/02 20:15:29;;;;;;;;;37.00;33.00;;;;;10.24;62.38;102220.84;5120669;27;45392;-62
2023/04/02 20:17:54;;;;;;;;;39.50;34.50;;;;;10.17;63.27;102203.13;5120474;27;45548;-60
2023/04/02 20:20:20;;;;;;;;;30.00;28.25;;;;;10.28;62.76;102215.44;5120658;27;45387;-63
2023/04/02 20:22:46;;;;;;;;;30.50;23.50;;;;;10.26;62.18;102211.88;5120368;27;45510;-61
2023/04/02 20:25:12;;;;;;;;;48.50;39.00;;;;;10.32;61.80;102230.50;5121038;27;45404;-61
2023/04/02 20:27:37;;;;;;;;;54.25;43.25;;;;;10.30;61.79;102224.28;5120357;27;45611;-64
2023/04/02 20:30:03;;;;;;;;;39.75;37.25;;;;;10.33;61.85;102226.94;5119739;27;59069;-63
2023/04/02 20:32:29;;;;;;;;;22.75;22.25;;;;;10.33;62.18;102233.16;5119135;27;45345;-64
2023/04/02 20:34:55;;;;;;;;;49.75;40.00;;;;;10.33;61.56;102235.84;5120593;27;45333;-65
2023/04/02 20:37:20;;;;;;;;;40.00;34.25;;;;;10.32;61.95;102227.84;5119713;27;45591;-61
2023/04/02 20:39:46;;;;;;;;;58.50;47.00;;;;;9.82;61.79;102152.03;5120129;27;45376;-64
2023/04/02 20:42:13;;;;;;;;;45.75;39.00;;;;;10.22;62.40;102230.72;5120300;27;45348;-63
2023/04/02 20:44:38;;;;;;;;;40.50;33.75;;;;;10.29;62.43;102239.53;5119931;27;45458;-63
2023/04/02 20:47:05;;;;;;;;;35.00;35.00;;;;;10.27;62.13;102244.03;5120185;27;45411;-68
2023/04/02 20:49:31;;;;;;;;;44.00;38.00;;;;;10.24;62.64;102244.09;5120125;27;45380;-66
2023/04/02 20:51:56;;;;;;;;;43.25;37.50;;;;;10.26;62.17;102230.66;5119762;27;45554;-65
2023/04/02 20:54:21;;;;;;;;;40.75;36.00;;;;;10.26;62.43;102249.41;5120207;27;45364;-63
2023/04/02 20:56:49;;;;;;;;;44.00;37.00;;;;;10.25;62.69;102256.56;5120371;27;45377;-61
2023/04/02 20:59:14;;;;;;;;;41.75;35.75;;;;;10.20;62.97;102262.03;5117981;27;47757;-62
2023/04/02 21:01:40;;;;;;;;;40.50;36.00;;;;;10.18;63.50;102255.81;5120195;27;45495;-62
2023/04/02 21:04:05;;;;;;;;;33.75;30.25;;;;;10.19;63.41;102251.34;5118366;27;45549;-62
2023/04/02 21:06:36;;;;;;;;;34.25;34.00;;;;;10.19;63.28;102267.44;5119772;27;45502;-63
2023/04/02 21:09:03;;;;;;;;;25.75;23.00;;;;;10.17;63.44;102262.09;5119831;27;45395;-61
2023/04/02 21:11:29;;;;;;;;;33.50;27.25;;;;;10.19;63.49;102265.63;5118139;27;45263;-64
2023/04/02 21:13:54;;;;;;;;;35.50;33.50;;;;;10.14;63.82;102262.09;5119843;27;45306;-63
2023/04/02 21:16:22;;;;;;;;;35.50;31.00;;;;;10.08;63.62;102251.53;5119411;27;45388;-61
2023/04/02 21:18:50;;;;;;;;;49.00;36.75;;;;;10.13;63.71;102262.13;5120388;27;45973;-63
2023/04/02 21:21:16;;;;;;;;;38.00;32.50;;;;;10.12;63.71;102263.06;5119903;27;45367;-61
2023/04/02 21:23:43;;;;;;;;;32.00;32.00;;;;;10.13;64.07;102263.03;5120388;27;45320;-62
2023/04/02 21:26:12;;;;;;;;;39.25;33.75;;;;;10.11;64.01;102264.88;5119938;27;45275;-60
2023/04/02 21:28:37;;;;;;;;;38.75;33.25;;;;;10.10;64.06;102264.91;5120151;27;45305;-62
2023/04/02 21:31:05;;;;;;;;;43.00;34.75;;;;;10.15;64.17;102266.56;5119769;27;45357;-61
2023/04/02 21:33:35;;;;;;;;;33.00;28.25;;;;;10.05;64.57;102245.31;5122091;27;45657;-62
2023/04/02 21:36:06;;;;;;;;;35.25;27.00;;;;;10.05;65.04;102239.97;5118433;27;45444;-62
2023/04/02 21:38:31;;;;;;;;;37.00;32.75;;;;;10.21;64.57;102277.19;5111421;27;45395;-63
2023/04/02 21:40:56;;;;;;;;;32.25;30.25;;;;;10.20;65.54;102263.84;5117487;27;45350;-62
2023/04/02 21:43:22;;;;;;;;;38.00;34.25;;;;;10.21;65.48;102265.56;5120223;27;45361;-61
2023/04/02 21:45:47;;;;;;;;;40.50;31.50;;;;;10.27;65.14;102276.19;5119813;27;45313;-62
2023/04/02 21:48:12;;;;;;;;;35.50;31.50;;;;;10.20;64.26;102266.53;5119821;27;50049;-61
2023/04/02 21:50:38;;;;;;;;;30.50;29.25;;;;;10.19;65.21;102260.28;5119213;27;56227;-62
2023/04/02 21:53:03;;;;;;;;;35.00;32.25;;;;;10.33;64.98;102269.81;5119830;27;45923;-62
2023/04/02 21:55:28;;;;;;;;;33.00;30.25;;;;;10.32;64.33;102274.28;5119612;27;45457;-62
2023/04/02 21:57:53;;;;;;;;;30.00;29.25;;;;;10.34;64.20;102271.59;5119408;27;60988;-62
2023/04/02 22:00:20;;;;;;;;;37.25;32.00;;;;;10.36;64.72;102275.13;5119568;27;48681;-62
2023/04/02 22:02:45;;;;;;;;;40.75;34.00;;;;;10.33;64.53;102277.84;5119924;27;44787;-62
2023/04/02 22:05:10;;;;;;;;;34.00;30.00;;;;;10.35;65.02;102276.03;5119174;27;48683;-61
2023/04/02 22:07:35;;;;;;;;;23.50;20.00;;;;;10.39;64.53;102275.94;5123379;27;46024;-62
2023/04/02 22:10:01;;;;;;;;;30.25;28.75;;;;;10.34;63.83;102268.91;5127288;27;45231;-63
2023/04/02 22:12:26;;;;;;;;;32.00;28.25;;;;;10.38;64.37;102267.94;5124265;27;45456;-63
2023/04/02 22:14:51;;;;;;;;;31.00;31.00;;;;;10.40;63.63;102264.28;5123139;27;45352;-63
2023/04/02 22:17:17;;;;;;;;;28.75;26.75;;;;;10.43;63.58;102274.97;5125745;27;45474;-62
2023/04/02 22:19:42;;;;;;;;;27.00;23.00;;;;;10.38;63.61;102266.13;5122524;27;56042;-63
2023/04/02 22:22:08;;;;;;;;;27.00;21.75;;;;;10.47;62.88;102268.59;5122982;27;45221;-62
2023/04/02 22:24:33;;;;;;;;;26.00;26.00;;;;;10.46;63.28;102274.03;5122751;27;45365;-62
2023/04/02 22:26:58;;;;;;;;;28.25;25.00;;;;;10.39;63.34;102258.97;5122733;27;47146;-64
2023/04/02 22:29:24;;;;;;;;;31.25;27.25;;;;;10.43;62.61;102261.56;5122550;27;45301;-62
2023/04/02 22:31:49;;;;;;;;;27.00;26.50;;;;;10.48;62.26;102264.13;5122721;27;45310;-61
2023/04/02 22:34:15;;;;;;;;;26.75;23.75;;;;;10.48;62.32;102266.81;5122544;27;45364;-62
2023/04/02 22:36:40;;;;;;;;;29.75;28.25;;;;;10.26;62.47;102231.53;5138408;27;46979;-62
2023/04/02 22:39:09;;;;;;;;;33.00;32.25;;;;;10.46;62.22;102261.47;5122643;27;45326;-62
2023/04/02 22:41:34;;;;;;;;;27.75;24.25;;;;;10.37;63.10;102242.03;5122595;27;45462;-61
2023/04/02 22:44:01;;;;;;;;;23.75;20.50;;;;;10.50;63.07;102264.97;5122535;27;45152;-62
2023/04/02 22:46:27;;;;;;;;;23.50;22.75;;;;;10.40;62.79;102247.31;5122220;27;45305;-62
2023/04/02 22:48:53;;;;;;;;;27.00;24.00;;;;;10.57;63.19;102269.28;5122449;27;45188;-61
2023/04/02 22:51:20;;;;;;;;;34.00;29.00;;;;;10.59;62.65;102273.72;5122476;27;45335;-62
2023/04/02 22:53:47;;;;;;;;;31.00;27.75;;;;;10.47;61.76;102246.28;5122561;27;45369;-62
2023/04/02 22:56:15;;;;;;;;;34.25;24.00;;;;;10.59;62.31;102264.78;5122368;27;46238;-61
2023/04/02 22:58:41;;;;;;;;;26.50;26.50;;;;;10.59;61.77;102263.00;5122457;27;45284;-61
